Latest Weather Observations for Cape Grim

IDT60801

Issued at 12:51 am EDT Saturday 16 November 2019 (issued every 10 minutes, with the page automatically refreshed every 10 minutes)

About weather observations | Map of weather stations | Latest weather observations for TAS | Other Formats
Station Details ID: 091331 Name: CAPE GRIM Lat: -40.68 Lon: 144.69 Height: 86.0 m
Data from the previous 72 hours. | See also: Recent months at Cape Grim
Date/Time
EDT
Temp
°C
App
Temp
°C
Dew
Point
°C
Rel
Hum
%
Delta-T
°C
Wind Press
QNH
hPa
Press
MSL
hPa
Rain since
9am
mm
Dir  Spd
km/h
Gust
km/h
Spd
kts
Gust
kts
16/12:30am 10.1 2.6 4.7 69 2.4 WSW 33 57 18 31 1011.8 1011.8 3.8
16/12:00am 10.1 2.6 6.1 76 1.9 W 35 57 19 31 1011.7 1011.7 3.8
 
Date/Time
EDT
Temp
°C
App
Temp
°C
Dew
Point
°C
Rel
Hum
%
Delta-T
°C
Wind Press
QNH
hPa
Press
MSL
hPa
Rain since
9am
mm
Dir  Spd
km/h
Gust
km/h
Spd
kts
Gust
kts
15/11:30pm 9.9 2.4 6.3 78 1.7 W 35 54 19 29 1011.7 1011.7 3.8
15/11:00pm 8.6 -0.5 6.7 88 0.9 WSW 44 78 24 42 1011.4 1011.4 3.4
15/10:30pm 10.8 3.0 6.7 76 1.9 WSW 37 63 20 34 1011.3 1011.3 3.0
15/10:00pm 10.4 3.3 6.4 76 1.9 WSW 33 59 18 32 1010.9 1010.9 3.0
15/09:31pm 10.4 3.5 7.1 80 1.6 WSW 33 56 18 30 1010.6 1010.6 2.8
15/09:30pm 10.5 3.6 7.4 81 1.5 WSW 33 50 18 27 1010.6 1010.6 2.8
15/09:00pm 9.0 1.8 6.1 82 1.3 WSW 33 56 18 30 1010.5 1010.5 2.8
15/08:50pm 8.0 0.0 5.6 85 1.1 WSW 37 70 20 38 1010.4 1010.4 2.8
15/08:31pm 9.8 3.8 7.1 83 1.3 W 28 56 15 30 1010.0 1010.0 1.8
15/08:30pm 9.7 3.7 7.0 83 1.3 W 28 56 15 30 1010.0 1010.0 1.8
15/08:28pm 9.7 3.3 7.1 84 1.2 WSW 30 56 16 30 1010.0 1010.0 1.8
15/08:00pm 9.3 0.5 7.3 87 1.0 SW 43 61 23 33 1009.7 1009.7 1.4
15/07:30pm 10.7 3.2 6.5 75 2.0 WSW 35 59 19 32 1009.2 1009.2 1.4
15/07:00pm 10.4 3.8 7.8 84 1.3 WSW 32 54 17 29 1009.0 1008.9 1.4
15/06:45pm 9.9 3.6 7.3 84 1.2 WSW 30 65 16 35 1008.7 1008.6 1.4
15/06:42pm 10.7 4.9 7.8 82 1.4 WSW 28 46 15 25 1008.7 1008.6 0.8
15/06:30pm 10.7 3.9 7.0 78 1.8 W 32 46 17 25 1008.5 1008.4 0.4
15/06:07pm 9.3 3.0 5.9 79 1.6 WSW 28 57 15 31 1008.3 1008.2 0.4
15/06:00pm 10.3 5.5 7.5 83 1.3 WSW 22 41 12 22 1008.3 1008.2 0.2
15/05:30pm 9.6 0.8 7.2 85 1.1 WSW 43 74 23 40 1007.9 1007.8 0.2
15/05:26pm 10.3 2.2 7.0 80 1.6 WSW 39 65 21 35 1007.8 1007.7 0.2
15/05:00pm 11.2 3.9 7.1 76 2.0 W 35 56 19 30 1007.5 1007.4 0.2
15/04:30pm 11.6 3.4 6.5 71 2.4 W 39 57 21 31 1007.2 1007.1 0.2
15/04:01pm 11.9 4.3 5.8 66 2.9 W 35 54 19 29 1007.0 1006.9 0.2
15/04:00pm 11.9 4.0 6.2 68 2.7 W 37 54 20 29 1007.0 1006.9 0.2
15/03:30pm 11.6 3.2 5.7 67 2.8 W 39 61 21 33 1006.7 1006.6 0.2
15/03:00pm 11.8 4.4 6.9 72 2.4 W 35 56 19 30 1006.5 1006.4 0.2
15/02:30pm 12.2 4.4 6.7 69 2.6 WSW 37 63 20 34 1006.3 1006.2 0.2
15/02:00pm 11.8 4.9 6.5 70 2.5 WSW 32 54 17 29 1006.1 1006.0 0.2
15/01:30pm 11.5 5.4 6.4 71 2.4 WSW 28 48 15 26 1006.1 1006.0 0.2
15/01:00pm 11.4 4.6 6.9 74 2.2 WSW 32 52 17 28 1005.8 1005.7 0.2
15/12:31pm 11.2 5.1 6.7 74 2.1 WSW 28 46 15 25 1005.6 1005.6 0.2
15/12:30pm 11.1 4.6 6.6 74 2.1 WSW 30 46 16 25 1005.6 1005.6 0.2
15/12:00pm 12.3 4.4 6.4 67 2.8 W 37 59 20 32 1005.5 1005.5 0.2
15/11:38am 12.3 5.1 5.7 64 3.1 W 33 52 18 28 1005.5 1005.5 0.2
15/11:30am 12.2 5.2 6.0 66 2.9 W 32 48 17 26 1005.5 1005.5 0.2
15/11:00am 11.7 3.6 5.1 64 3.1 W 37 56 20 30 1005.4 1005.4 0.2
15/10:30am 11.5 5.3 8.0 79 1.7 W 30 48 16 26 1005.6 1005.6 0.2
15/10:00am 10.6 4.7 7.5 81 1.5 WSW 28 46 15 25 1005.9 1005.8 0.0
15/09:30am 11.2 6.2 6.5 73 2.2 WSW 22 35 12 19 1005.8 1005.7 0.0
15/09:00am 11.1 5.8 6.8 75 2.1 WSW 24 43 13 23 1005.8 1005.7 2.8
15/08:30am 11.1 4.3 7.0 76 2.0 SW 32 52 17 28 1005.4 1005.4 2.8
15/08:00am 11.5 5.2 7.2 75 2.1 SW 30 48 16 26 1005.2 1005.2 2.8
15/07:30am 11.2 3.9 7.1 76 2.0 SW 35 54 19 29 1005.0 1005.0 2.8
15/07:00am 11.0 4.2 7.1 77 1.9 WSW 32 56 17 30 1004.9 1004.9 2.8
15/06:33am 11.0 4.9 8.4 84 1.3 W 30 48 16 26 1004.5 1004.5 2.8
15/06:30am 10.9 4.5 8.5 85 1.2 W 32 48 17 26 1004.5 1004.5 2.8
15/06:01am 11.2 5.2 10.0 92 0.6 W 32 50 17 27 1004.3 1004.3 2.8
15/06:00am 11.1 4.9 9.9 92 0.6 W 33 50 18 27 1004.3 1004.3 2.8
15/05:52am 11.2 4.6 10.0 92 0.6 W 35 52 19 28 1004.3 1004.3 2.8
15/05:36am 10.9 5.6 9.7 92 0.6 W 28 46 15 25 1004.3 1004.3 2.8
15/05:30am 10.8 5.8 9.6 92 0.6 W 26 44 14 24 1004.3 1004.3 2.8
15/05:07am 10.2 3.7 9.0 92 0.6 WSW 33 52 18 28 1004.1 1004.1 2.8
15/05:05am 10.3 3.8 9.1 92 0.6 WSW 33 52 18 28 1004.0 1004.0 2.8
15/05:00am 10.5 3.6 8.9 90 0.8 W 35 52 19 28 1004.1 1004.1 2.8
15/04:33am 11.5 5.3 9.9 90 0.8 W 33 52 18 28 1004.1 1004.1 2.6
15/04:30am 11.5 4.9 9.9 90 0.8 W 35 52 19 28 1004.1 1004.1 2.6
15/04:07am 11.4 4.7 9.8 90 0.8 W 35 54 19 29 1004.0 1004.0 2.6
15/04:00am 11.3 4.6 9.7 90 0.8 W 35 52 19 28 1004.0 1004.0 2.6
15/03:32am 11.1 4.2 10.3 95 0.4 W 37 56 20 30 1004.1 1004.1 2.6
15/03:30am 11.0 3.8 10.4 96 0.3 W 39 56 21 30 1004.1 1004.1 2.6
15/03:09am 10.8 4.3 10.2 96 0.3 W 35 54 19 29 1004.2 1004.2 2.4
15/03:00am 10.7 3.0 10.1 96 0.3 W 41 56 22 30 1004.4 1004.4 2.4
15/02:48am 10.9 3.9 10.1 95 0.4 W 37 61 20 33 1004.5 1004.5 2.4
15/02:39am 10.9 3.6 10.1 95 0.4 W 39 52 21 28 1004.4 1004.4 2.0
15/02:30am 10.9 3.6 10.3 96 0.3 W 39 54 21 29 1004.6 1004.6 2.0
15/02:28am 11.0 3.7 10.2 95 0.4 W 39 54 21 29 1004.6 1004.6 2.0
15/02:00am 11.3 3.0 10.0 92 0.7 W 44 65 24 35 1004.7 1004.7 1.6
15/01:32am 11.3 2.9 9.7 90 0.8 W 44 67 24 36 1004.9 1004.9 1.6
15/01:30am 11.3 3.1 9.7 90 0.8 W 43 59 23 32 1005.0 1005.0 1.6
15/01:00am 11.2 3.9 10.1 93 0.6 W 39 57 21 31 1005.4 1005.4 1.6
15/12:37am 11.5 4.1 9.9 90 0.8 W 39 61 21 33 1005.6 1005.6 1.6
15/12:30am 11.5 4.1 9.8 89 0.9 W 39 56 21 30 1005.6 1005.6 1.6
15/12:00am 11.2 3.0 9.8 91 0.7 W 43 61 23 33 1005.9 1005.8 1.6
 
Date/Time
EDT
Temp
°C
App
Temp
°C
Dew
Point
°C
Rel
Hum
%
Delta-T
°C
Wind Press
QNH
hPa
Press
MSL
hPa
Rain since
9am
mm
Dir  Spd
km/h
Gust
km/h
Spd
kts
Gust
kts
14/11:30pm 11.3 3.2 10.2 93 0.6 W 43 65 23 35 1006.3 1006.2 1.4
14/11:00pm 11.4 2.7 9.8 90 0.8 W 46 67 25 36 1006.5 1006.4 1.4
14/10:33pm 11.6 3.6 10.3 92 0.7 W 43 61 23 33 1007.0 1006.9 1.4
14/10:30pm 11.4 3.1 10.1 92 0.7 W 44 59 24 32 1007.0 1006.9 1.4
14/10:00pm 11.4 3.1 10.0 91 0.7 W 44 63 24 34 1007.2 1007.1 1.4
14/09:40pm 11.0 2.4 10.2 95 0.4 W 46 65 25 35 1007.3 1007.2 1.4
14/09:30pm 10.7 2.0 10.1 96 0.3 W 46 67 25 36 1007.2 1007.1 1.4
14/09:00pm 11.4 4.2 10.6 95 0.4 W 39 63 21 34 1007.4 1007.3 0.6
14/08:46pm 11.6 3.4 10.5 93 0.6 W 44 59 24 32 1007.4 1007.3 0.2
14/08:30pm 11.4 2.8 10.3 93 0.6 W 46 57 25 31 1007.4 1007.3 0.2
14/08:00pm 11.6 4.2 9.9 89 0.9 W 39 50 21 27 1007.5 1007.4 0.2
14/07:30pm 11.7 3.6 9.9 89 0.9 W 43 61 23 33 1007.5 1007.4 0.2
14/07:16pm 12.0 5.0 10.1 88 1.0 W 37 56 20 30 1007.5 1007.4 0.2
14/07:00pm 12.1 3.3 9.5 84 1.3 W 46 61 25 33 1007.5 1007.4 0.2
14/06:41pm 12.2 3.1 9.8 85 1.2 W 48 67 26 36 1007.6 1007.5 0.2
14/06:30pm 12.3 3.2 9.9 85 1.2 W 48 65 26 35 1007.5 1007.4 0.2
14/06:00pm 12.2 3.8 9.8 85 1.2 W 44 63 24 34 1007.6 1007.5 0.2
14/05:30pm 12.3 3.2 9.7 84 1.3 W 48 70 26 38 1007.8 1007.7 0.2
14/05:21pm 12.2 2.5 9.2 82 1.5 W 50 70 27 38 1007.7 1007.6 0.2
14/05:00pm 12.5 3.4 9.7 83 1.4 W 48 61 26 33 1007.5 1007.4 0.2
14/04:30pm 12.1 2.8 9.1 82 1.5 W 48 70 26 38 1007.8 1007.7 0.2
14/04:01pm 12.4 4.7 10.1 86 1.2 W 41 61 22 33 1008.3 1008.2 0.2
14/04:00pm 12.4 4.7 10.0 85 1.2 W 41 57 22 31 1008.3 1008.2 0.2
14/03:31pm 12.7 4.6 10.1 84 1.3 W 43 61 23 33 1008.4 1008.3 0.2
14/03:30pm 12.6 4.3 10.0 84 1.3 W 44 61 24 33 1008.4 1008.3 0.2
14/03:18pm 12.6 4.5 10.1 85 1.3 W 43 61 23 33 1008.5 1008.4 0.2
14/03:00pm 12.9 4.3 10.4 85 1.3 W 46 59 25 32 1008.4 1008.3 0.2
14/02:30pm 12.3 4.1 9.7 84 1.3 W 43 61 23 33 1008.9 1008.8 0.2
14/02:00pm 12.0 3.6 9.7 86 1.2 W 44 67 24 36 1009.1 1009.0 0.2
14/01:30pm 11.4 3.7 10.1 92 0.7 W 41 65 22 35 1009.2 1009.2 0.2
14/01:24pm 11.5 3.4 9.9 90 0.8 W 43 65 23 35 1009.1 1009.0 0.2
14/01:00pm 12.6 4.6 10.3 86 1.2 W 43 56 23 30 1009.2 1009.2 0.2
14/12:31pm 12.4 5.7 9.8 84 1.3 W 35 54 19 29 1009.5 1009.5 0.2
14/12:30pm 12.5 5.9 9.9 84 1.3 W 35 48 19 26 1009.5 1009.5 0.2
14/12:00pm 12.0 4.7 10.1 88 1.0 W 39 56 21 30 1009.2 1009.2 0.2
14/11:39am 12.0 5.9 10.4 90 0.8 W 33 52 18 28 1009.6 1009.6 0.2
14/11:30am 12.0 5.5 10.2 89 0.9 W 35 50 19 27 1009.4 1009.4 0.2
14/11:00am 12.5 4.7 9.7 83 1.4 W 41 61 22 33 1009.3 1009.3 0.2
14/10:51am 12.4 5.0 9.8 84 1.3 W 39 57 21 31 1009.3 1009.3 0.2
14/10:30am 12.0 4.6 9.9 87 1.1 W 39 54 21 29 1009.3 1009.3 0.2
14/10:00am 11.6 4.2 10.0 90 0.8 W 39 57 21 31 1009.1 1009.0 0.2
14/09:58am 11.5 4.2 10.1 91 0.7 W 39 57 21 31 1009.1 1009.0 0.2
14/09:48am 11.2 3.5 10.1 93 0.6 W 41 61 22 33 1009.2 1009.2 0.2
14/09:30am 11.3 3.9 10.0 92 0.7 W 39 63 21 34 1009.2 1009.2 0.0
14/09:03am 11.9 4.4 9.6 86 1.2 W 39 57 21 31 1009.1 1009.0 0.0
14/09:00am 12.0 4.2 9.7 86 1.2 W 41 57 22 31 1009.1 1009.0 2.6
14/08:30am 11.7 3.9 9.6 87 1.1 W 41 61 22 33 1008.9 1008.8 2.6
14/08:25am 11.7 3.9 9.9 89 0.9 W 41 61 22 33 1008.9 1008.8 2.6
14/08:06am 11.7 3.9 9.9 89 0.9 W 41 56 22 30 1008.8 1008.7 2.6
14/08:00am 11.6 3.9 10.0 90 0.8 W 41 57 22 31 1008.7 1008.6 2.6
14/07:43am 11.4 4.1 10.3 93 0.6 W 39 57 21 31 1008.7 1008.6 2.6
14/07:30am 11.6 4.3 10.2 91 0.7 W 39 54 21 29 1008.6 1008.5 2.6
14/07:23am 11.6 3.9 10.0 90 0.8 W 41 54 22 29 1008.6 1008.5 2.6
14/07:05am 11.4 4.0 9.8 90 0.8 W 39 57 21 31 1008.7 1008.6 2.6
14/07:02am 11.3 3.5 9.7 90 0.8 W 41 57 22 31 1008.7 1008.6 2.6
14/07:00am 11.3 3.5 9.7 90 0.8 W 41 57 22 31 1008.7 1008.6 2.6
14/06:40am 11.2 3.9 10.1 93 0.6 W 39 57 21 31 1008.6 1008.5 2.6
14/06:39am 11.3 4.1 10.4 94 0.5 W 39 54 21 29 1008.6 1008.5 2.6
14/06:35am 11.2 3.9 10.3 94 0.5 W 39 52 21 28 1008.6 1008.5 2.6
14/06:30am 11.1 3.0 10.2 94 0.5 W 43 63 23 34 1008.6 1008.5 2.6
14/06:00am 11.2 4.3 10.4 95 0.4 W 37 61 20 33 1008.4 1008.3 2.6
14/05:59am 11.2 4.7 10.4 95 0.4 W 35 57 19 31 1008.4 1008.3 2.6
14/05:55am 11.2 4.8 10.6 96 0.3 W 35 50 19 27 1008.5 1008.4 2.6
14/05:30am 11.2 3.9 10.3 94 0.5 W 39 57 21 31 1008.3 1008.2 2.6
14/05:28am 11.2 4.3 10.3 94 0.5 W 37 56 20 30 1008.3 1008.2 2.6
14/05:26am 11.2 4.2 10.1 93 0.6 W 37 52 20 28 1008.3 1008.2 2.6
14/05:19am 11.1 3.7 10.0 93 0.6 W 39 57 21 31 1008.3 1008.2 2.6
14/05:16am 11.0 3.2 9.9 93 0.6 W 41 57 22 31 1008.3 1008.2 2.6
14/05:10am 11.0 3.2 9.9 93 0.6 W 41 56 22 30 1008.3 1008.2 2.6
14/05:00am 11.2 3.9 10.1 93 0.6 W 39 56 21 30 1008.3 1008.2 2.6
14/04:56am 11.1 3.7 9.9 92 0.6 W 39 56 21 30 1008.3 1008.2 2.6
14/04:42am 11.2 4.2 10.1 93 0.6 W 37 57 20 31 1008.3 1008.2 2.6
14/04:39am 11.3 4.4 10.2 93 0.6 W 37 50 20 27 1008.4 1008.3 2.6
14/04:36am 11.3 4.0 10.2 93 0.6 W 39 57 21 31 1008.4 1008.3 2.6
14/04:30am 11.1 3.4 10.0 93 0.6 W 41 57 22 31 1008.4 1008.3 2.6
14/04:29am 11.1 3.0 10.0 93 0.6 W 43 57 23 31 1008.4 1008.3 2.6
14/04:09am 11.0 4.1 10.2 95 0.4 W 37 56 20 30 1008.5 1008.4 2.6
14/04:08am 11.1 4.2 10.3 95 0.4 W 37 56 20 30 1008.5 1008.4 2.6
14/04:00am 11.1 3.9 10.5 96 0.3 W 39 54 21 29 1008.6 1008.5 2.6
14/03:36am 11.2 4.8 10.6 96 0.3 W 35 54 19 29 1008.6 1008.5 2.6
14/03:30am 11.1 4.2 10.3 95 0.4 W 37 54 20 29 1008.7 1008.6 2.6
14/03:26am 11.2 4.3 10.3 94 0.5 W 37 56 20 30 1008.8 1008.7 2.6
14/03:00am 11.2 3.1 10.1 93 0.6 W 43 61 23 33 1009.1 1009.0 2.6
14/02:39am 11.3 4.8 10.2 93 0.6 W 35 57 19 31 1009.2 1009.2 2.6
14/02:37am 11.3 4.8 10.2 93 0.6 W 35 57 19 31 1009.2 1009.2 2.6
14/02:30am 11.4 4.9 10.3 93 0.6 W 35 46 19 25 1009.3 1009.3 2.6
14/02:25am 11.3 4.8 10.2 93 0.6 W 35 54 19 29 1009.3 1009.3 2.6
14/02:00am 11.3 4.4 10.2 93 0.6 W 37 54 20 29 1009.3 1009.3 2.6
14/01:54am 11.2 3.9 10.1 93 0.6 W 39 56 21 30 1009.4 1009.4 2.6
14/01:39am 11.4 4.1 10.3 93 0.6 W 39 57 21 31 1009.7 1009.7 2.6
14/01:38am 11.3 4.0 10.2 93 0.6 W 39 57 21 31 1009.7 1009.7 2.6
14/01:32am 11.4 4.4 10.1 92 0.7 W 37 56 20 30 1009.7 1009.7 2.6
14/01:30am 11.4 4.5 10.3 93 0.6 W 37 50 20 27 1009.7 1009.7 2.6
14/01:19am 11.4 5.5 10.5 94 0.5 W 32 50 17 27 1009.8 1009.8 2.6
14/01:06am 11.3 5.2 10.4 94 0.5 W 33 50 18 27 1009.8 1009.8 2.6
14/01:01am 11.2 4.7 10.3 94 0.5 W 35 52 19 28 1009.8 1009.8 2.6
14/01:00am 11.2 4.7 10.3 94 0.5 W 35 52 19 28 1009.8 1009.8 2.6
14/12:44am 11.3 4.8 10.2 93 0.6 W 35 57 19 31 1009.9 1009.9 2.6
14/12:43am 11.2 4.2 10.1 93 0.6 W 37 57 20 31 1009.9 1009.9 2.6
14/12:30am 11.5 4.9 10.1 91 0.7 W 35 52 19 28 1010.1 1010.1 2.6
14/12:08am 11.5 5.4 9.9 90 0.8 W 32 52 17 28 1010.3 1010.3 2.6
14/12:00am 11.6 5.4 10.0 90 0.8 W 33 54 18 29 1010.2 1010.2 2.6
 
Date/Time
EDT
Temp
°C
App
Temp
°C
Dew
Point
°C
Rel
Hum
%
Delta-T
°C
Wind Press
QNH
hPa
Press
MSL
hPa
Rain since
9am
mm
Dir  Spd
km/h
Gust
km/h
Spd
kts
Gust
kts
13/11:30pm 11.3 4.6 9.7 90 0.8 W 35 57 19 31 1010.2 1010.2 2.6
13/11:03pm 11.3 6.0 10.0 92 0.7 WSW 28 50 15 27 1010.3 1010.3 2.6
13/11:00pm 11.3 5.7 10.0 92 0.7 WSW 30 50 16 27 1010.4 1010.4 2.6
13/10:30pm 11.5 6.3 10.1 91 0.7 WSW 28 52 15 28 1010.6 1010.6 2.6
13/10:19pm 11.5 5.8 9.9 90 0.8 WSW 30 56 16 30 1010.7 1010.7 2.6
13/10:06pm 11.4 6.1 10.0 91 0.7 WSW 28 46 15 25 1010.7 1010.7 2.6
13/10:00pm 11.3 6.4 10.0 92 0.7 WSW 26 46 14 25 1010.7 1010.7 2.6
13/09:47pm 11.2 6.0 10.3 94 0.5 WSW 28 48 15 26 1010.7 1010.7 2.6
13/09:33pm 11.2 5.1 10.4 95 0.4 SW 33 52 18 28 1010.9 1010.9 2.6
13/09:30pm 11.1 4.6 10.3 95 0.4 SW 35 52 19 28 1010.9 1010.9 2.6
13/09:00pm 10.7 5.0 9.8 94 0.5 SW 30 56 16 30 1010.5 1010.5 2.6
13/08:30pm 10.9 3.8 9.5 91 0.7 SW 37 59 20 32 1010.3 1010.3 2.6
13/08:00pm 11.3 5.1 9.4 88 1.0 WSW 32 57 17 31 1010.1 1010.1 2.6
13/07:30pm 11.3 3.8 9.4 88 1.0 SW 39 67 21 36 1010.0 1010.0 2.6
13/07:00pm 11.6 5.3 9.7 88 1.0 SW 33 54 18 29 1009.7 1009.7 2.6
13/06:30pm 11.5 3.9 9.2 86 1.2 WSW 39 63 21 34 1009.5 1009.5 2.6
13/06:00pm 10.9 1.7 9.5 91 0.7 SW 48 74 26 40 1009.1 1009.0 2.6
13/05:30pm 11.8 4.4 9.7 87 1.1 SW 39 65 21 35 1009.1 1009.0 2.4
13/05:00pm 11.6 3.9 10.3 92 0.7 SW 41 65 22 35 1008.8 1008.7 2.4
13/04:30pm 11.6 1.8 10.2 91 0.7 SW 52 76 28 41 1008.5 1008.4 2.4
13/04:23pm 11.6 1.4 10.0 90 0.8 SW 54 76 29 41 1008.5 1008.4 2.4
13/04:00pm 11.7 5.7 10.8 94 0.5 WSW 33 63 18 34 1008.3 1008.2 2.4
13/03:52pm 11.4 5.3 10.6 95 0.4 WSW 33 59 18 32 1008.3 1008.2 2.4
13/03:30pm 11.4 4.8 10.0 91 0.7 WSW 35 65 19 35 1008.2 1008.1 1.4
13/03:15pm 11.9 5.1 10.6 92 0.7 WSW 37 61 20 33 1008.1 1008.0 1.4
13/03:01pm 11.2 2.6 10.3 94 0.5 WSW 46 69 25 37 1008.1 1008.0 1.4
13/03:00pm 11.4 2.9 10.5 94 0.5 WSW 46 69 25 37 1008.1 1008.0 1.4
13/02:30pm 12.0 4.6 11.2 95 0.4 W 41 65 22 35 1007.8 1007.7 1.4
13/02:00pm 11.9 3.6 11.3 96 0.3 W 46 69 25 37 1007.8 1007.7 1.2
13/01:30pm 11.7 2.6 11.2 97 0.3 W 50 72 27 39 1007.5 1007.4 1.2
13/01:00pm 11.6 3.3 11.3 98 0.2 W 46 67 25 36 1007.6 1007.5 1.2
13/12:30pm 11.5 1.9 10.7 95 0.4 W 52 80 28 43 1007.4 1007.3 0.4
13/12:00pm 11.3 0.9 10.7 96 0.3 W 56 76 30 41 1007.2 1007.1 0.4
13/11:30am 11.1 0.7 10.6 97 0.3 W 56 74 30 40 1007.2 1007.1 0.4
13/11:01am 11.5 0.2 9.6 88 1.0 W 59 78 32 42 1007.4 1007.3 0.0
13/11:00am 11.5 -0.1 9.6 88 1.0 W 61 78 33 42 1007.4 1007.3 0.0
13/10:59am 11.4 0.1 9.5 88 1.0 W 59 78 32 42 1007.4 1007.3 0.0
13/10:57am 11.5 0.3 9.8 89 0.9 W 59 76 32 41 1007.4 1007.3 0.0
13/10:30am 11.4 -0.4 9.0 85 1.2 W 61 82 33 44 1007.6 1007.5 0.0
13/10:00am 11.3 0.1 8.2 81 1.5 W 57 82 31 44 1007.8 1007.7 0.0
13/09:30am 11.3 1.4 8.2 81 1.5 W 50 74 27 40 1008.0 1007.9 0.0
13/09:00am 11.0 1.3 7.7 80 1.6 W 48 70 26 38 1008.2 1008.1 5.0
13/08:40am 11.1 2.3 7.4 78 1.8 W 43 61 23 33 1008.3 1008.2 5.0
13/08:30am 10.9 2.0 6.8 76 1.9 W 43 59 23 32 1008.2 1008.1 5.0
13/08:00am 11.1 2.8 7.8 80 1.6 W 41 59 22 32 1008.2 1008.1 5.0
13/07:30am 10.7 1.7 6.5 75 2.0 W 43 65 23 35 1008.1 1008.0 5.0
13/07:00am 10.4 3.3 6.4 76 1.9 WSW 33 59 18 32 1008.3 1008.2 5.0
13/06:30am 10.3 1.6 5.9 74 2.0 W 41 65 22 35 1008.4 1008.3 5.0
13/06:00am 10.0 2.0 5.6 74 2.0 WSW 37 59 20 32 1008.1 1008.0 5.0
13/05:30am 10.2 1.2 4.6 68 2.5 W 41 67 22 36 1008.1 1008.0 5.0
13/05:00am 10.2 2.3 6.0 75 2.0 WSW 37 61 20 33 1007.6 1007.5 5.0
13/04:30am 9.4 1.8 5.9 79 1.6 WSW 35 61 19 33 1007.9 1007.8 5.0
13/04:00am 9.4 -0.7 5.6 77 1.7 SW 48 74 26 40 1008.1 1008.0 5.0
13/03:30am 9.0 -0.2 5.4 78 1.6 SW 43 78 23 42 1008.1 1008.0 5.0
13/03:00am 8.5 -0.7 6.3 86 1.0 SW 44 65 24 35 1008.3 1008.2 5.0
13/02:47am 8.4 -2.4 5.9 84 1.1 SW 52 87 28 47 1008.2 1008.1 4.8
13/02:30am 9.0 -1.4 5.9 81 1.4 SW 50 69 27 37 1008.4 1008.3 4.6
13/02:05am 9.2 -1.6 5.8 79 1.6 SW 52 80 28 43 1008.4 1008.3 4.6
13/02:00am 8.8 -2.8 5.7 81 1.4 SW 56 80 30 43 1008.4 1008.3 4.6
13/01:59am 8.6 -3.0 5.7 82 1.3 SW 56 80 30 43 1008.4 1008.3 4.6
13/01:56am 8.9 -1.1 6.2 83 1.2 WSW 48 74 26 40 1008.4 1008.3 4.6
13/01:30am 9.4 0.1 5.2 75 1.9 SW 43 65 23 35 1008.6 1008.5 4.4
13/01:06am 8.6 -2.0 5.2 79 1.5 SW 50 82 27 44 1008.8 1008.7 4.4
13/01:05am 8.6 -1.6 5.4 80 1.4 SW 48 82 26 44 1008.7 1008.6 4.4
13/01:00am 9.8 0.4 5.6 75 1.9 SW 44 70 24 38 1008.8 1008.7 4.4

Other formats

Comma delimited format used in spreadsheet applications
http://www.bom.gov.au/fwo/IDT60801/IDT60801.95954.axf

JavaScript Object Notation format (JSON) in row-major order
http://www.bom.gov.au/fwo/IDT60801/IDT60801.95954.json

Data quality

Most of these data are generated automatically and are frequently updated. Quality checks on data are not normally performed. It is possible for incorrect values to appear. Refer to information at About Latest Weather Observations and please check the disclaimer before using these data.